ADDS METAR Data INFO
IDs: Format: Raw Decoded Include TAF

Data at: 0353 UTC 18 Oct 2017

KTCC 180253Z AUTO 24010KT 10SM CLR 17/06 A3008 RMK AO2 SLP150 T01670061 51009
KTCC 180153Z AUTO 23011KT 10SM CLR 18/06 A3007 RMK AO2 SLP153 T01830061
KTCC 180053Z AUTO 22009KT 10SM CLR 18/07 A3006 RMK AO2 SLP157 T01780067
KTCC 172353Z AUTO 21010KT 10SM CLR 23/06 A3005 RMK AO2 SLP138 T02330061 10300 20233 56006
KTCC 172253Z AUTO 22012KT 10SM CLR 28/04 A3005 RMK AO2 SLP134 T02780044
KTCC 172153Z AUTO 25009KT 10SM CLR 29/01 A3006 RMK AO2 SLP130 T02940006
KTCC 172053Z AUTO 25006KT 10SM CLR 29/M01 A3007 RMK AO2 SLP136 T02891006 56031
KTCC 171953Z AUTO 28010KT 10SM CLR 28/M02 A3010 RMK AO2 SLP143 T02831022
KTCC 171853Z AUTO 27004KT 10SM CLR 27/00 A3014 RMK AO2 SLP158 T02670000
KTCC 171753Z AUTO 28009KT 10SM CLR 24/01 A3017 RMK AO2 SLP172 T02440006 10244 20033 58012
KTCC 171653Z AUTO 26009KT 10SM CLR 22/01 A3019 RMK AO2 SLP181 T02170011
KTCC 171553Z AUTO 26013KT 10SM CLR 19/01 A3020 RMK AO2 SLP190 T01890011
KTCC 171453Z AUTO 25008KT 10SM CLR 13/02 A3021 RMK AO2 SLP200 T01330022 53007
KTCC 171353Z AUTO 27005KT 10SM CLR 08/02 A3020 RMK AO2 SLP205 T00780022
KTCC 171253Z AUTO 28004KT 10SM CLR 03/01 A3019 RMK AO2 SLP208 T00330006
KTCC 171153Z AUTO 22010KT 10SM CLR 07/02 A3019 RMK AO2 SLP189 T00720017 10128 20056 56006
KTCC 171053Z AUTO 25006KT 10SM CLR 06/02 A3019 RMK AO2 SLP190 T00610017
KTCC 170953Z AUTO 25010KT 10SM CLR 09/02 A3019 RMK AO2 SLP182 T00890017
KTCC 170853Z AUTO 24009KT 10SM CLR 09/02 A3021 RMK AO2 SLP191 T00890017 56006
KTCC 170753Z AUTO 23011KT 10SM CLR 11/02 A3021 RMK AO2 SLP189 T01110017
KTCC 170653Z AUTO 22012KT 10SM CLR 12/02 A3021 RMK AO2 SLP189 T01220017 402500033
KTCC 170553Z AUTO 22011KT 10SM CLR 13/01 A3023 RMK AO2 SLP195 T01280011 10211 20111 58002
KTCC 170453Z AUTO 22010KT 10SM CLR 13/02 A3024 RMK AO2 SLP204 T01330017
KTCC 170353Z AUTO 23007KT 10SM CLR 13/02 A3024 RMK AO2 SLP205 T01280022
KTCC 170253Z AUTO 22009KT 10SM CLR 14/03 A3023 RMK AO2 SLP209 T01390028 51004
KTCC 170153Z AUTO 22009KT 10SM CLR 14/03 A3023 RMK AO2 SLP215 T01440028
KTCC 170053Z AUTO 20007KT 10SM CLR 14/03 A3023 RMK AO2 SLP215 T01440033
KTCC 162353Z AUTO 21013KT 10SM CLR 21/03 A3022 RMK AO2 SLP206 T02110028 10250 20206 55009
KTCC 162253Z AUTO 21015KT 10SM CLR 24/02 A3022 RMK AO2 SLP198 T02390017
KTCC 162153Z AUTO 22015KT 10SM CLR 25/02 A3023 RMK AO2 SLP200 T02500022
KTCC 162053Z AUTO 21017G21KT 10SM CLR 24/03 A3025 RMK AO2 SLP211 T02440028 56035
KTCC 161953Z AUTO 23016G21KT 10SM CLR 24/02 A3029 RMK AO2 SLP224 T02390017
KTCC 161853Z AUTO 22015KT 10SM CLR 23/02 A3033 RMK AO2 SLP239 T02280017
KTCC 161753Z AUTO 21016G21KT 10SM CLR 21/02 A3037 RMK AO2 SLP253 T02110017 10211 20044 58018
KTCC 161653Z AUTO 21017G21KT 10SM CLR 19/02 A3040 RMK AO2 SLP266 T01890017